sensor_id;sensor_type;location;lat;lon;timestamp;P1;durP1;ratioP1;P2;durP2;ratioP2
4274;SDS011;2151;50.988;11.068;2024-01-10T00:00:03;136.40;;;16.63;;
4274;SDS011;2151;50.988;11.068;2024-01-10T00:02:30;140.27;;;16.13;;
4274;SDS011;2151;50.988;11.068;2024-01-10T00:04:57;137.10;;;15.50;;
4274;SDS011;2151;50.988;11.068;2024-01-10T00:07:24;131.07;;;14.73;;
4274;SDS011;2151;50.988;11.068;2024-01-10T00:09:50;134.53;;;14.20;;
4274;SDS011;2151;50.988;11.068;2024-01-10T00:12:17;124.27;;;11.50;;
4274;SDS011;2151;50.988;11.068;2024-01-10T00:14:44;127.97;;;12.20;;
4274;SDS011;2151;50.988;11.068;2024-01-10T00:17:10;126.57;;;13.97;;
4274;SDS011;2151;50.988;11.068;2024-01-10T00:19:37;129.10;;;11.40;;
4274;SDS011;2151;50.988;11.068;2024-01-10T00:22:04;133.27;;;15.00;;
4274;SDS011;2151;50.988;11.068;2024-01-10T00:24:30;133.87;;;16.50;;
4274;SDS011;2151;50.988;11.068;2024-01-10T00:26:57;147.67;;;16.40;;
4274;SDS011;2151;50.988;11.068;2024-01-10T00:29:24;139.30;;;16.17;;
4274;SDS011;2151;50.988;11.068;2024-01-10T00:31:51;137.77;;;17.47;;
4274;SDS011;2151;50.988;11.068;2024-01-10T00:34:19;142.37;;;17.63;;
4274;SDS011;2151;50.988;11.068;2024-01-10T00:36:46;136.97;;;17.00;;
4274;SDS011;2151;50.988;11.068;2024-01-10T00:39:13;136.37;;;15.73;;
4274;SDS011;2151;50.988;11.068;2024-01-10T00:41:41;136.00;;;16.10;;
4274;SDS011;2151;50.988;11.068;2024-01-10T00:44:08;135.77;;;15.13;;
4274;SDS011;2151;50.988;11.068;2024-01-10T00:46:35;136.57;;;17.00;;
4274;SDS011;2151;50.988;11.068;2024-01-10T00:49:02;134.80;;;15.43;;
4274;SDS011;2151;50.988;11.068;2024-01-10T00:51:28;135.17;;;16.97;;
4274;SDS011;2151;50.988;11.068;2024-01-10T00:53:55;125.23;;;12.10;;
4274;SDS011;2151;50.988;11.068;2024-01-10T00:56:22;136.87;;;15.10;;
4274;SDS011;2151;50.988;11.068;2024-01-10T00:58:48;135.63;;;15.77;;
4274;SDS011;2151;50.988;11.068;2024-01-10T01:01:15;130.63;;;12.90;;
4274;SDS011;2151;50.988;11.068;2024-01-10T01:03:42;134.73;;;14.60;;
4274;SDS011;2151;50.988;11.068;2024-01-10T01:06:09;138.43;;;16.73;;
4274;SDS011;2151;50.988;11.068;2024-01-10T01:08:35;115.77;;;9.50;;
4274;SDS011;2151;50.988;11.068;2024-01-10T01:11:02;141.33;;;14.67;;
4274;SDS011;2151;50.988;11.068;2024-01-10T01:13:29;133.33;;;14.63;;
4274;SDS011;2151;50.988;11.068;2024-01-10T01:15:56;133.53;;;15.77;;
4274;SDS011;2151;50.988;11.068;2024-01-10T01:18:22;124.20;;;12.40;;
4274;SDS011;2151;50.988;11.068;2024-01-10T01:20:49;130.77;;;15.30;;
4274;SDS011;2151;50.988;11.068;2024-01-10T01:23:16;132.23;;;14.50;;
4274;SDS011;2151;50.988;11.068;2024-01-10T01:26:00;137.90;;;15.60;;
4274;SDS011;2151;50.988;11.068;2024-01-10T01:28:27;130.77;;;14.80;;
4274;SDS011;2151;50.988;11.068;2024-01-10T01:30:54;133.03;;;14.27;;
4274;SDS011;2151;50.988;11.068;2024-01-10T01:33:20;132.40;;;14.57;;
4274;SDS011;2151;50.988;11.068;2024-01-10T01:35:47;128.97;;;13.43;;
4274;SDS011;2151;50.988;11.068;2024-01-10T01:38:14;132.37;;;15.20;;
4274;SDS011;2151;50.988;11.068;2024-01-10T01:40:41;133.60;;;13.77;;
4274;SDS011;2151;50.988;11.068;2024-01-10T01:43:17;133.57;;;14.53;;
4274;SDS011;2151;50.988;11.068;2024-01-10T01:45:44;126.63;;;13.70;;
4274;SDS011;2151;50.988;11.068;2024-01-10T01:48:11;125.13;;;12.33;;
4274;SDS011;2151;50.988;11.068;2024-01-10T01:50:39;133.53;;;14.57;;
4274;SDS011;2151;50.988;11.068;2024-01-10T01:53:07;129.77;;;15.70;;
4274;SDS011;2151;50.988;11.068;2024-01-10T01:55:34;125.27;;;13.07;;
4274;SDS011;2151;50.988;11.068;2024-01-10T01:58:01;129.90;;;12.00;;
4274;SDS011;2151;50.988;11.068;2024-01-10T02:00:27;124.90;;;13.07;;
4274;SDS011;2151;50.988;11.068;2024-01-10T02:02:54;125.67;;;14.20;;
4274;SDS011;2151;50.988;11.068;2024-01-10T02:05:21;134.90;;;15.10;;
4274;SDS011;2151;50.988;11.068;2024-01-10T02:07:48;136.20;;;15.40;;
4274;SDS011;2151;50.988;11.068;2024-01-10T02:10:14;136.03;;;16.57;;
4274;SDS011;2151;50.988;11.068;2024-01-10T02:12:41;137.13;;;15.83;;
4274;SDS011;2151;50.988;11.068;2024-01-10T02:15:08;132.70;;;15.70;;
4274;SDS011;2151;50.988;11.068;2024-01-10T02:17:35;138.17;;;16.10;;
4274;SDS011;2151;50.988;11.068;2024-01-10T02:20:11;136.07;;;16.30;;
4274;SDS011;2151;50.988;11.068;2024-01-10T02:22:38;138.70;;;16.50;;
4274;SDS011;2151;50.988;11.068;2024-01-10T02:25:08;137.93;;;16.57;;
4274;SDS011;2151;50.988;11.068;2024-01-10T02:27:38;129.80;;;14.50;;
4274;SDS011;2151;50.988;11.068;2024-01-10T02:30:06;137.33;;;16.03;;
4274;SDS011;2151;50.988;11.068;2024-01-10T02:32:32;131.80;;;16.23;;
4274;SDS011;2151;50.988;11.068;2024-01-10T02:34:59;138.10;;;17.37;;
4274;SDS011;2151;50.988;11.068;2024-01-10T02:37:26;129.87;;;14.60;;
4274;SDS011;2151;50.988;11.068;2024-01-10T02:39:53;137.90;;;15.20;;
4274;SDS011;2151;50.988;11.068;2024-01-10T02:42:20;132.27;;;15.37;;
4274;SDS011;2151;50.988;11.068;2024-01-10T02:44:46;139.37;;;15.17;;
4274;SDS011;2151;50.988;11.068;2024-01-10T02:47:13;134.20;;;15.50;;
4274;SDS011;2151;50.988;11.068;2024-01-10T02:49:41;132.33;;;13.93;;
4274;SDS011;2151;50.988;11.068;2024-01-10T02:52:07;132.90;;;14.73;;
4274;SDS011;2151;50.988;11.068;2024-01-10T02:54:34;134.97;;;13.70;;
4274;SDS011;2151;50.988;11.068;2024-01-10T02:57:01;137.07;;;15.70;;
4274;SDS011;2151;50.988;11.068;2024-01-10T02:59:27;133.77;;;15.10;;
4274;SDS011;2151;50.988;11.068;2024-01-10T03:01:55;134.17;;;14.23;;
4274;SDS011;2151;50.988;11.068;2024-01-10T03:04:21;135.97;;;14.47;;
4274;SDS011;2151;50.988;11.068;2024-01-10T03:06:48;136.73;;;16.53;;
4274;SDS011;2151;50.988;11.068;2024-01-10T03:09:15;135.40;;;16.33;;
4274;SDS011;2151;50.988;11.068;2024-01-10T03:11:42;137.43;;;16.30;;
4274;SDS011;2151;50.988;11.068;2024-01-10T03:14:09;129.93;;;15.20;;
4274;SDS011;2151;50.988;11.068;2024-01-10T03:16:36;148.17;;;17.80;;
4274;SDS011;2151;50.988;11.068;2024-01-10T03:19:03;133.77;;;16.83;;
4274;SDS011;2151;50.988;11.068;2024-01-10T03:21:30;133.53;;;15.40;;
4274;SDS011;2151;50.988;11.068;2024-01-10T03:23:57;138.10;;;16.40;;
4274;SDS011;2151;50.988;11.068;2024-01-10T03:26:24;143.30;;;17.27;;
4274;SDS011;2151;50.988;11.068;2024-01-10T03:28:52;133.13;;;16.03;;
4274;SDS011;2151;50.988;11.068;2024-01-10T03:31:19;136.47;;;16.93;;
4274;SDS011;2151;50.988;11.068;2024-01-10T03:33:45;146.20;;;17.73;;
4274;SDS011;2151;50.988;11.068;2024-01-10T03:36:14;138.87;;;16.07;;
4274;SDS011;2151;50.988;11.068;2024-01-10T03:38:41;136.73;;;17.97;;
4274;SDS011;2151;50.988;11.068;2024-01-10T03:41:18;136.27;;;15.93;;
4274;SDS011;2151;50.988;11.068;2024-01-10T03:43:44;136.50;;;16.47;;
4274;SDS011;2151;50.988;11.068;2024-01-10T03:46:12;136.70;;;16.17;;
4274;SDS011;2151;50.988;11.068;2024-01-10T03:48:39;138.40;;;15.83;;
4274;SDS011;2151;50.988;11.068;2024-01-10T03:51:18;136.77;;;16.70;;
4274;SDS011;2151;50.988;11.068;2024-01-10T03:53:45;144.27;;;17.03;;
4274;SDS011;2151;50.988;11.068;2024-01-10T03:56:12;133.90;;;16.33;;
4274;SDS011;2151;50.988;11.068;2024-01-10T03:58:41;147.03;;;15.47;;
4274;SDS011;2151;50.988;11.068;2024-01-10T04:01:09;132.03;;;15.20;;
4274;SDS011;2151;50.988;11.068;2024-01-10T04:03:36;141.87;;;16.57;;
4274;SDS011;2151;50.988;11.068;2024-01-10T04:06:03;143.23;;;17.73;;
4274;SDS011;2151;50.988;11.068;2024-01-10T04:08:30;140.70;;;16.63;;
4274;SDS011;2151;50.988;11.068;2024-01-10T04:10:57;149.80;;;17.20;;
4274;SDS011;2151;50.988;11.068;2024-01-10T04:13:24;141.57;;;17.63;;
4274;SDS011;2151;50.988;11.068;2024-01-10T04:15:51;139.20;;;16.23;;
4274;SDS011;2151;50.988;11.068;2024-01-10T04:18:19;140.57;;;17.03;;
4274;SDS011;2151;50.988;11.068;2024-01-10T04:20:49;137.17;;;16.10;;
4274;SDS011;2151;50.988;11.068;2024-01-10T04:23:16;133.53;;;15.70;;
4274;SDS011;2151;50.988;11.068;2024-01-10T04:25:44;135.40;;;15.17;;
4274;SDS011;2151;50.988;11.068;2024-01-10T04:28:11;138.87;;;16.47;;
4274;SDS011;2151;50.988;11.068;2024-01-10T04:30:37;127.37;;;13.10;;
4274;SDS011;2151;50.988;11.068;2024-01-10T04:33:04;130.33;;;14.40;;
4274;SDS011;2151;50.988;11.068;2024-01-10T04:35:31;137.57;;;16.00;;
4274;SDS011;2151;50.988;11.068;2024-01-10T04:37:58;138.07;;;17.27;;
4274;SDS011;2151;50.988;11.068;2024-01-10T04:40:25;139.27;;;17.83;;
4274;SDS011;2151;50.988;11.068;2024-01-10T04:42:51;132.03;;;15.67;;
4274;SDS011;2151;50.988;11.068;2024-01-10T04:45:18;139.47;;;17.93;;
4274;SDS011;2151;50.988;11.068;2024-01-10T04:47:45;138.27;;;16.83;;
4274;SDS011;2151;50.988;11.068;2024-01-10T04:50:12;139.47;;;17.10;;
4274;SDS011;2151;50.988;11.068;2024-01-10T04:52:40;134.20;;;16.60;;
4274;SDS011;2151;50.988;11.068;2024-01-10T04:55:08;129.83;;;15.07;;
4274;SDS011;2151;50.988;11.068;2024-01-10T04:57:35;135.33;;;16.67;;
4274;SDS011;2151;50.988;11.068;2024-01-10T05:00:03;134.90;;;16.90;;
4274;SDS011;2151;50.988;11.068;2024-01-10T05:02:30;137.73;;;15.60;;
4274;SDS011;2151;50.988;11.068;2024-01-10T05:04:57;137.03;;;17.13;;
4274;SDS011;2151;50.988;11.068;2024-01-10T05:07:24;140.33;;;16.37;;
4274;SDS011;2151;50.988;11.068;2024-01-10T05:09:51;133.23;;;15.60;;
4274;SDS011;2151;50.988;11.068;2024-01-10T05:12:18;137.20;;;16.27;;
4274;SDS011;2151;50.988;11.068;2024-01-10T05:14:45;139.13;;;16.90;;
4274;SDS011;2151;50.988;11.068;2024-01-10T05:17:12;143.00;;;15.73;;
4274;SDS011;2151;50.988;11.068;2024-01-10T05:19:38;138.83;;;17.13;;
4274;SDS011;2151;50.988;11.068;2024-01-10T05:22:05;141.43;;;15.20;;
4274;SDS011;2151;50.988;11.068;2024-01-10T05:24:32;137.60;;;16.40;;
4274;SDS011;2151;50.988;11.068;2024-01-10T05:26:59;142.70;;;17.63;;
4274;SDS011;2151;50.988;11.068;2024-01-10T05:29:26;137.10;;;16.90;;
4274;SDS011;2151;50.988;11.068;2024-01-10T05:31:53;141.67;;;15.70;;
4274;SDS011;2151;50.988;11.068;2024-01-10T05:34:20;145.33;;;17.27;;
4274;SDS011;2151;50.988;11.068;2024-01-10T05:36:47;133.27;;;15.07;;
4274;SDS011;2151;50.988;11.068;2024-01-10T05:39:14;144.10;;;16.73;;
4274;SDS011;2151;50.988;11.068;2024-01-10T05:41:42;130.87;;;16.03;;
4274;SDS011;2151;50.988;11.068;2024-01-10T05:44:12;140.80;;;16.80;;
4274;SDS011;2151;50.988;11.068;2024-01-10T05:46:39;133.87;;;15.13;;
4274;SDS011;2151;50.988;11.068;2024-01-10T05:49:06;145.37;;;17.20;;
4274;SDS011;2151;50.988;11.068;2024-01-10T05:51:33;132.77;;;15.60;;
4274;SDS011;2151;50.988;11.068;2024-01-10T05:54:00;135.50;;;16.07;;
4274;SDS011;2151;50.988;11.068;2024-01-10T05:56:28;135.17;;;16.13;;
4274;SDS011;2151;50.988;11.068;2024-01-10T05:58:55;147.00;;;18.13;;
4274;SDS011;2151;50.988;11.068;2024-01-10T06:01:21;135.67;;;16.50;;
4274;SDS011;2151;50.988;11.068;2024-01-10T06:03:48;141.53;;;15.23;;
4274;SDS011;2151;50.988;11.068;2024-01-10T06:06:17;136.50;;;17.10;;
4274;SDS011;2151;50.988;11.068;2024-01-10T06:08:44;132.13;;;15.20;;
4274;SDS011;2151;50.988;11.068;2024-01-10T06:11:12;131.50;;;14.73;;
4274;SDS011;2151;50.988;11.068;2024-01-10T06:13:38;130.40;;;14.20;;
4274;SDS011;2151;50.988;11.068;2024-01-10T06:16:19;133.70;;;15.23;;
4274;SDS011;2151;50.988;11.068;2024-01-10T06:18:48;138.20;;;15.83;;
4274;SDS011;2151;50.988;11.068;2024-01-10T06:21:15;138.63;;;16.23;;
4274;SDS011;2151;50.988;11.068;2024-01-10T06:23:42;130.97;;;15.73;;
4274;SDS011;2151;50.988;11.068;2024-01-10T06:26:09;134.27;;;16.17;;
4274;SDS011;2151;50.988;11.068;2024-01-10T06:28:35;134.77;;;15.50;;
4274;SDS011;2151;50.988;11.068;2024-01-10T06:31:02;139.47;;;15.37;;
4274;SDS011;2151;50.988;11.068;2024-01-10T06:33:33;135.17;;;15.73;;
4274;SDS011;2151;50.988;11.068;2024-01-10T06:35:59;136.30;;;15.83;;
4274;SDS011;2151;50.988;11.068;2024-01-10T06:38:26;126.37;;;13.80;;
4274;SDS011;2151;50.988;11.068;2024-01-10T06:40:53;137.27;;;15.93;;
4274;SDS011;2151;50.988;11.068;2024-01-10T06:43:20;142.03;;;17.47;;
4274;SDS011;2151;50.988;11.068;2024-01-10T06:45:47;139.33;;;16.57;;
4274;SDS011;2151;50.988;11.068;2024-01-10T06:48:15;135.87;;;16.37;;
4274;SDS011;2151;50.988;11.068;2024-01-10T06:50:42;142.13;;;18.43;;
4274;SDS011;2151;50.988;11.068;2024-01-10T06:53:10;136.43;;;15.97;;
4274;SDS011;2151;50.988;11.068;2024-01-10T06:55:37;136.80;;;15.77;;
4274;SDS011;2151;50.988;11.068;2024-01-10T06:58:04;138.50;;;16.73;;
4274;SDS011;2151;50.988;11.068;2024-01-10T07:00:31;132.70;;;15.80;;
4274;SDS011;2151;50.988;11.068;2024-01-10T07:03:00;147.70;;;17.20;;
4274;SDS011;2151;50.988;11.068;2024-01-10T07:05:28;136.77;;;18.10;;
4274;SDS011;2151;50.988;11.068;2024-01-10T07:07:55;147.63;;;18.73;;
4274;SDS011;2151;50.988;11.068;2024-01-10T07:10:22;139.20;;;17.43;;
4274;SDS011;2151;50.988;11.068;2024-01-10T07:12:54;138.10;;;17.17;;
4274;SDS011;2151;50.988;11.068;2024-01-10T07:15:21;141.10;;;17.93;;
4274;SDS011;2151;50.988;11.068;2024-01-10T07:17:48;147.43;;;17.37;;
4274;SDS011;2151;50.988;11.068;2024-01-10T07:20:14;134.07;;;15.40;;
4274;SDS011;2151;50.988;11.068;2024-01-10T07:22:41;139.87;;;17.47;;
4274;SDS011;2151;50.988;11.068;2024-01-10T07:25:11;142.10;;;18.43;;
4274;SDS011;2151;50.988;11.068;2024-01-10T07:27:41;138.70;;;17.23;;
4274;SDS011;2151;50.988;11.068;2024-01-10T07:30:08;138.50;;;16.90;;
4274;SDS011;2151;50.988;11.068;2024-01-10T07:32:41;151.13;;;19.37;;
4274;SDS011;2151;50.988;11.068;2024-01-10T07:35:08;134.57;;;18.07;;
4274;SDS011;2151;50.988;11.068;2024-01-10T07:37:39;147.77;;;19.00;;
4274;SDS011;2151;50.988;11.068;2024-01-10T07:40:07;144.00;;;17.97;;
4274;SDS011;2151;50.988;11.068;2024-01-10T07:42:35;139.17;;;17.17;;
4274;SDS011;2151;50.988;11.068;2024-01-10T07:45:02;142.87;;;18.33;;
4274;SDS011;2151;50.988;11.068;2024-01-10T07:47:32;144.77;;;16.60;;
4274;SDS011;2151;50.988;11.068;2024-01-10T07:50:00;141.60;;;18.80;;
4274;SDS011;2151;50.988;11.068;2024-01-10T07:52:27;144.97;;;18.77;;
4274;SDS011;2151;50.988;11.068;2024-01-10T07:54:54;151.83;;;19.73;;
4274;SDS011;2151;50.988;11.068;2024-01-10T07:57:20;158.80;;;19.87;;
4274;SDS011;2151;50.988;11.068;2024-01-10T07:59:47;133.57;;;15.80;;
4274;SDS011;2151;50.988;11.068;2024-01-10T08:02:13;145.47;;;19.20;;
4274;SDS011;2151;50.988;11.068;2024-01-10T08:04:40;146.60;;;19.80;;
4274;SDS011;2151;50.988;11.068;2024-01-10T08:07:08;144.73;;;18.83;;
4274;SDS011;2151;50.988;11.068;2024-01-10T08:09:36;152.03;;;19.67;;
4274;SDS011;2151;50.988;11.068;2024-01-10T08:12:03;153.00;;;20.23;;
4274;SDS011;2151;50.988;11.068;2024-01-10T08:14:30;145.97;;;19.40;;
4274;SDS011;2151;50.988;11.068;2024-01-10T08:16:57;150.03;;;21.10;;
4274;SDS011;2151;50.988;11.068;2024-01-10T08:19:27;150.30;;;19.80;;
4274;SDS011;2151;50.988;11.068;2024-01-10T08:21:54;157.10;;;21.00;;
4274;SDS011;2151;50.988;11.068;2024-01-10T08:24:21;146.93;;;20.23;;
4274;SDS011;2151;50.988;11.068;2024-01-10T08:26:48;145.67;;;20.40;;
4274;SDS011;2151;50.988;11.068;2024-01-10T08:29:18;153.90;;;21.27;;
4274;SDS011;2151;50.988;11.068;2024-01-10T08:31:45;143.73;;;19.83;;
4274;SDS011;2151;50.988;11.068;2024-01-10T08:34:13;152.17;;;18.57;;
4274;SDS011;2151;50.988;11.068;2024-01-10T08:36:39;154.20;;;23.33;;
4274;SDS011;2151;50.988;11.068;2024-01-10T08:39:06;141.27;;;16.50;;
4274;SDS011;2151;50.988;11.068;2024-01-10T08:41:33;152.90;;;19.17;;
4274;SDS011;2151;50.988;11.068;2024-01-10T08:44:00;153.60;;;21.07;;
4274;SDS011;2151;50.988;11.068;2024-01-10T08:46:26;128.20;;;14.23;;
4274;SDS011;2151;50.988;11.068;2024-01-10T08:48:53;147.30;;;19.00;;
4274;SDS011;2151;50.988;11.068;2024-01-10T08:51:20;143.77;;;20.53;;
4274;SDS011;2151;50.988;11.068;2024-01-10T08:53:46;156.43;;;22.30;;
4274;SDS011;2151;50.988;11.068;2024-01-10T08:56:14;154.60;;;21.27;;
4274;SDS011;2151;50.988;11.068;2024-01-10T08:58:41;153.87;;;23.60;;
4274;SDS011;2151;50.988;11.068;2024-01-10T09:01:08;145.97;;;17.47;;
4274;SDS011;2151;50.988;11.068;2024-01-10T09:03:35;150.07;;;22.30;;
4274;SDS011;2151;50.988;11.068;2024-01-10T09:06:02;142.80;;;19.57;;
4274;SDS011;2151;50.988;11.068;2024-01-10T09:08:36;117.97;;;9.07;;
4274;SDS011;2151;50.988;11.068;2024-01-10T09:11:03;152.83;;;22.33;;
4274;SDS011;2151;50.988;11.068;2024-01-10T09:13:33;146.50;;;19.53;;
4274;SDS011;2151;50.988;11.068;2024-01-10T09:16:00;152.73;;;21.50;;
4274;SDS011;2151;50.988;11.068;2024-01-10T09:18:28;157.07;;;22.73;;
4274;SDS011;2151;50.988;11.068;2024-01-10T09:20:56;154.70;;;21.80;;
4274;SDS011;2151;50.988;11.068;2024-01-10T09:23:23;144.30;;;19.23;;
4274;SDS011;2151;50.988;11.068;2024-01-10T09:25:50;155.07;;;22.33;;
4274;SDS011;2151;50.988;11.068;2024-01-10T09:28:17;152.40;;;18.13;;
4274;SDS011;2151;50.988;11.068;2024-01-10T09:30:44;153.33;;;23.30;;
4274;SDS011;2151;50.988;11.068;2024-01-10T09:33:10;151.23;;;22.13;;
4274;SDS011;2151;50.988;11.068;2024-01-10T09:35:37;153.00;;;23.77;;
4274;SDS011;2151;50.988;11.068;2024-01-10T09:38:04;164.13;;;23.30;;
4274;SDS011;2151;50.988;11.068;2024-01-10T09:40:31;146.07;;;20.90;;
4274;SDS011;2151;50.988;11.068;2024-01-10T09:42:58;152.77;;;22.13;;
4274;SDS011;2151;50.988;11.068;2024-01-10T09:45:24;148.97;;;19.13;;
4274;SDS011;2151;50.988;11.068;2024-01-10T09:47:53;153.73;;;23.50;;
4274;SDS011;2151;50.988;11.068;2024-01-10T09:50:22;151.97;;;21.00;;
4274;SDS011;2151;50.988;11.068;2024-01-10T09:52:53;152.60;;;22.67;;
4274;SDS011;2151;50.988;11.068;2024-01-10T09:55:21;151.97;;;22.23;;
4274;SDS011;2151;50.988;11.068;2024-01-10T09:57:50;146.87;;;20.60;;
4274;SDS011;2151;50.988;11.068;2024-01-10T10:00:17;153.97;;;22.27;;
4274;SDS011;2151;50.988;11.068;2024-01-10T10:02:45;150.70;;;22.67;;
4274;SDS011;2151;50.988;11.068;2024-01-10T10:05:13;150.37;;;19.37;;
4274;SDS011;2151;50.988;11.068;2024-01-10T10:07:45;158.67;;;24.10;;
4274;SDS011;2151;50.988;11.068;2024-01-10T10:10:13;150.20;;;22.30;;
4274;SDS011;2151;50.988;11.068;2024-01-10T10:12:41;155.63;;;23.23;;
4274;SDS011;2151;50.988;11.068;2024-01-10T10:15:16;154.90;;;23.07;;
4274;SDS011;2151;50.988;11.068;2024-01-10T10:17:46;153.57;;;21.77;;
4274;SDS011;2151;50.988;11.068;2024-01-10T10:25:29;141.87;;;17.20;;
4274;SDS011;2151;50.988;11.068;2024-01-10T10:27:57;158.80;;;22.03;;
4274;SDS011;2151;50.988;11.068;2024-01-10T10:30:24;157.73;;;25.97;;
4274;SDS011;2151;50.988;11.068;2024-01-10T10:32:51;152.07;;;23.97;;
4274;SDS011;2151;50.988;11.068;2024-01-10T10:35:18;152.37;;;21.70;;
4274;SDS011;2151;50.988;11.068;2024-01-10T10:38:02;166.67;;;25.87;;
4274;SDS011;2151;50.988;11.068;2024-01-10T10:40:29;154.03;;;23.80;;
4274;SDS011;2151;50.988;11.068;2024-01-10T10:42:56;166.23;;;26.57;;
4274;SDS011;2151;50.988;11.068;2024-01-10T10:45:23;163.43;;;25.23;;
4274;SDS011;2151;50.988;11.068;2024-01-10T10:47:59;156.33;;;22.97;;
4274;SDS011;2151;50.988;11.068;2024-01-10T10:50:33;146.77;;;19.53;;
4274;SDS011;2151;50.988;11.068;2024-01-10T10:53:02;153.70;;;25.50;;
4274;SDS011;2151;50.988;11.068;2024-01-10T10:55:29;161.53;;;23.00;;
4274;SDS011;2151;50.988;11.068;2024-01-10T10:57:56;156.33;;;26.07;;
4274;SDS011;2151;50.988;11.068;2024-01-10T11:00:33;153.63;;;22.80;;
4274;SDS011;2151;50.988;11.068;2024-01-10T11:03:02;171.07;;;24.40;;
4274;SDS011;2151;50.988;11.068;2024-01-10T11:05:30;162.73;;;24.47;;
4274;SDS011;2151;50.988;11.068;2024-01-10T11:07:57;155.13;;;25.13;;
4274;SDS011;2151;50.988;11.068;2024-01-10T11:10:30;157.60;;;24.40;;
4274;SDS011;2151;50.988;11.068;2024-01-10T11:15:41;162.53;;;24.43;;
4274;SDS011;2151;50.988;11.068;2024-01-10T11:21:01;164.00;;;24.40;;
4274;SDS011;2151;50.988;11.068;2024-01-10T11:26:19;164.37;;;27.70;;
4274;SDS011;2151;50.988;11.068;2024-01-10T11:28:45;156.60;;;24.03;;
4274;SDS011;2151;50.988;11.068;2024-01-10T11:31:13;161.57;;;27.17;;
4274;SDS011;2151;50.988;11.068;2024-01-10T11:33:40;152.97;;;22.40;;
4274;SDS011;2151;50.988;11.068;2024-01-10T11:41:10;167.57;;;26.80;;
4274;SDS011;2151;50.988;11.068;2024-01-10T11:43:36;151.80;;;22.77;;
4274;SDS011;2151;50.988;11.068;2024-01-10T11:46:05;167.10;;;26.00;;
4274;SDS011;2151;50.988;11.068;2024-01-10T11:48:32;158.43;;;22.10;;
4274;SDS011;2151;50.988;11.068;2024-01-10T11:50:58;167.33;;;25.27;;
4274;SDS011;2151;50.988;11.068;2024-01-10T11:53:41;167.03;;;25.00;;
4274;SDS011;2151;50.988;11.068;2024-01-10T11:56:17;162.77;;;26.70;;
4274;SDS011;2151;50.988;11.068;2024-01-10T11:59:03;172.17;;;25.00;;
4274;SDS011;2151;50.988;11.068;2024-01-10T12:01:36;162.43;;;24.50;;
4274;SDS011;2151;50.988;11.068;2024-01-10T12:04:03;161.83;;;26.37;;
4274;SDS011;2151;50.988;11.068;2024-01-10T12:06:45;161.63;;;25.10;;
4274;SDS011;2151;50.988;11.068;2024-01-10T12:09:14;164.70;;;26.40;;
4274;SDS011;2151;50.988;11.068;2024-01-10T12:11:40;165.13;;;26.90;;
4274;SDS011;2151;50.988;11.068;2024-01-10T12:14:08;164.73;;;27.37;;
4274;SDS011;2151;50.988;11.068;2024-01-10T12:16:35;165.67;;;27.07;;
4274;SDS011;2151;50.988;11.068;2024-01-10T12:19:03;162.33;;;25.97;;
4274;SDS011;2151;50.988;11.068;2024-01-10T12:21:30;172.33;;;28.10;;
4274;SDS011;2151;50.988;11.068;2024-01-10T12:23:56;165.83;;;28.33;;
4274;SDS011;2151;50.988;11.068;2024-01-10T12:26:24;160.97;;;25.53;;
4274;SDS011;2151;50.988;11.068;2024-01-10T12:28:54;158.80;;;26.27;;
4274;SDS011;2151;50.988;11.068;2024-01-10T12:31:22;169.80;;;24.37;;
4274;SDS011;2151;50.988;11.068;2024-01-10T12:33:56;155.30;;;25.77;;
4274;SDS011;2151;50.988;11.068;2024-01-10T12:36:41;160.43;;;22.57;;
4274;SDS011;2151;50.988;11.068;2024-01-10T12:39:07;161.07;;;26.20;;
4274;SDS011;2151;50.988;11.068;2024-01-10T12:41:34;165.20;;;25.57;;
4274;SDS011;2151;50.988;11.068;2024-01-10T12:44:02;158.63;;;26.10;;
4274;SDS011;2151;50.988;11.068;2024-01-10T12:46:30;169.00;;;28.50;;
4274;SDS011;2151;50.988;11.068;2024-01-10T12:48:58;165.70;;;24.70;;
4274;SDS011;2151;50.988;11.068;2024-01-10T12:51:25;164.30;;;25.90;;
4274;SDS011;2151;50.988;11.068;2024-01-10T12:53:51;168.77;;;26.40;;
4274;SDS011;2151;50.988;11.068;2024-01-10T12:56:19;163.43;;;26.83;;
4274;SDS011;2151;50.988;11.068;2024-01-10T12:58:46;168.43;;;29.10;;
4274;SDS011;2151;50.988;11.068;2024-01-10T13:01:13;147.57;;;18.43;;
4274;SDS011;2151;50.988;11.068;2024-01-10T13:03:40;168.87;;;25.40;;
4274;SDS011;2151;50.988;11.068;2024-01-10T13:06:07;161.37;;;25.00;;
4274;SDS011;2151;50.988;11.068;2024-01-10T13:08:33;163.63;;;27.00;;
4274;SDS011;2151;50.988;11.068;2024-01-10T13:11:00;168.53;;;25.73;;
4274;SDS011;2151;50.988;11.068;2024-01-10T13:13:27;163.40;;;26.47;;
4274;SDS011;2151;50.988;11.068;2024-01-10T13:15:54;166.37;;;26.70;;
4274;SDS011;2151;50.988;11.068;2024-01-10T13:18:22;163.63;;;26.83;;
4274;SDS011;2151;50.988;11.068;2024-01-10T13:20:49;177.17;;;30.47;;
4274;SDS011;2151;50.988;11.068;2024-01-10T13:23:17;180.00;;;29.73;;
4274;SDS011;2151;50.988;11.068;2024-01-10T13:25:45;172.13;;;29.50;;
4274;SDS011;2151;50.988;11.068;2024-01-10T13:28:12;173.70;;;28.07;;
4274;SDS011;2151;50.988;11.068;2024-01-10T13:30:39;164.97;;;25.00;;
4274;SDS011;2151;50.988;11.068;2024-01-10T13:33:10;169.00;;;27.90;;
4274;SDS011;2151;50.988;11.068;2024-01-10T13:35:37;167.80;;;26.90;;
4274;SDS011;2151;50.988;11.068;2024-01-10T13:38:05;167.17;;;26.20;;
4274;SDS011;2151;50.988;11.068;2024-01-10T13:40:32;172.20;;;29.27;;
4274;SDS011;2151;50.988;11.068;2024-01-10T13:43:00;169.63;;;28.67;;
4274;SDS011;2151;50.988;11.068;2024-01-10T13:45:29;169.43;;;28.00;;
4274;SDS011;2151;50.988;11.068;2024-01-10T13:47:57;166.70;;;28.83;;
4274;SDS011;2151;50.988;11.068;2024-01-10T13:50:24;167.70;;;26.90;;
4274;SDS011;2151;50.988;11.068;2024-01-10T13:52:51;169.57;;;29.03;;
4274;SDS011;2151;50.988;11.068;2024-01-10T13:55:20;176.53;;;31.17;;
4274;SDS011;2151;50.988;11.068;2024-01-10T13:57:47;162.37;;;26.40;;
4274;SDS011;2151;50.988;11.068;2024-01-10T14:00:13;172.83;;;27.47;;
4274;SDS011;2151;50.988;11.068;2024-01-10T14:02:44;179.67;;;29.80;;
4274;SDS011;2151;50.988;11.068;2024-01-10T14:05:11;170.40;;;27.20;;
4274;SDS011;2151;50.988;11.068;2024-01-10T14:07:38;176.37;;;30.57;;
4274;SDS011;2151;50.988;11.068;2024-01-10T14:10:05;167.50;;;27.03;;
4274;SDS011;2151;50.988;11.068;2024-01-10T14:12:32;172.20;;;28.33;;
4274;SDS011;2151;50.988;11.068;2024-01-10T14:14:59;170.87;;;28.40;;
4274;SDS011;2151;50.988;11.068;2024-01-10T14:17:30;175.80;;;29.33;;
4274;SDS011;2151;50.988;11.068;2024-01-10T14:19:57;183.23;;;30.20;;
4274;SDS011;2151;50.988;11.068;2024-01-10T14:22:23;169.23;;;28.67;;
4274;SDS011;2151;50.988;11.068;2024-01-10T14:24:58;165.17;;;28.93;;
4274;SDS011;2151;50.988;11.068;2024-01-10T14:27:28;170.63;;;28.00;;
4274;SDS011;2151;50.988;11.068;2024-01-10T14:29:55;165.30;;;27.83;;
4274;SDS011;2151;50.988;11.068;2024-01-10T14:32:22;174.70;;;28.80;;
4274;SDS011;2151;50.988;11.068;2024-01-10T14:34:50;165.77;;;28.47;;
4274;SDS011;2151;50.988;11.068;2024-01-10T14:37:18;163.57;;;26.03;;
4274;SDS011;2151;50.988;11.068;2024-01-10T14:39:47;171.87;;;27.90;;
4274;SDS011;2151;50.988;11.068;2024-01-10T14:42:13;167.00;;;27.33;;